VVPB/HUI METAR and TAF weather

Enter ICAO airport designator
Station Type Date Time Source
VVPB METAR 2022/06/25 23:00 UTC NOAA

VVPB 252300Z 27004KT 9999 FEW015 26/24 Q1008 NOSIG


Station Type Date Time Source
VVPB Decoded METAR 2022/06/25 23:00 UTC NOAA

Hue, Vietnam (VVPB) 16-24N 107-41E 17M
Jun 25, 2022 - 07:00 PM EDT / 2022.06.25 2300 UTC
Wind: from the W (270 degrees) at 5 MPH (4 KT):0
Visibility: greater than 7 mile(s):0
Sky conditions: mostly clear
Temperature: 78 F (26 C)
Dew Point: 75 F (24 C)
Relative Humidity: 88%
Pressure (altimeter): 29.77 in. Hg (1008 hPa)
ob: VVPB 252300Z 27004KT 9999 FEW015 26/24 Q1008 NOSIG
cycle: 23

Station Type Date Time Source
VVPB TAF 2022/06/25 18:00 UTC NOAA

TAF VVPB 251700Z 2518/2618 21005KT 9999 FEW015
BECMG 2603/2604 07010KT
TEMPO 2608/2612 TS SCT015 FEW017CB
BECMG 2612/2613 21005KT

Example: see airport list